Auburn, Georgia
Current Conditions -  °F | °C
As of 4:45 PM on Saturday 25 Oct 2014 (Local Time) from KLZU Reporting Station
Clear Clear  
Wind Chill: 24°   Ceiling: Unl
Heat Index: 24°   Visibility: 10mi
Dew Point:   Wind: 6mph
Humidity: 25%   Direction: 290°WNW
Pressure: 30"   Gusts: NA
Location:  34.01°N, 83.83°W
Report Text: KLZU 252045Z 29005KT 10SM CLR 24/03 A3000 RMK ATIS Q RWY 25 JW
Loading
Personal Weather Stations






























Interactive Weather Map
Tropical Storm Tracking
New forecast layout! Learn more

10-Day Weather Forecast

Advertisements
Track Severe Weather on mobile